sensor_id;sensor_type;location;lat;lon;timestamp;pressure;altitude;pressure_sealevel;temperature;humidity
54588;BME280;40484;50.198;19.576;2023-01-16T09:48:32;100176.21;;;9.55;51.01
54588;BME280;40484;50.198;19.576;2023-01-16T09:53:37;100162.46;;;9.66;50.96
54588;BME280;40484;50.198;19.576;2023-01-16T10:04:30;100142.95;;;9.87;50.82
54588;BME280;40484;50.198;19.576;2023-01-16T10:15:01;100120.12;;;9.91;50.88
54588;BME280;40484;50.198;19.576;2023-01-16T10:20:46;100113.08;;;10.09;50.74
54588;BME280;40484;50.198;19.576;2023-01-16T10:31:11;100088.57;;;9.90;50.81
54588;BME280;40484;50.198;19.576;2023-01-16T10:36:13;100079.98;;;9.96;50.67
54588;BME280;40484;50.198;19.576;2023-01-16T10:41:20;100065.41;;;10.01;50.65
54588;BME280;40484;50.198;19.576;2023-01-16T10:47:00;100054.75;;;9.67;50.80
54588;BME280;40484;50.198;19.576;2023-01-16T10:53:06;100031.91;;;9.90;50.59
54588;BME280;40484;50.198;19.576;2023-01-16T10:58:28;100013.51;;;10.03;50.33
54588;BME280;40484;50.198;19.576;2023-01-16T11:08:37;99985.19;;;10.25;50.00
54588;BME280;40484;50.198;19.576;2023-01-16T11:13:39;99979.47;;;10.38;50.06
54588;BME280;40484;50.198;19.576;2023-01-16T11:19:21;99971.34;;;10.39;49.66
54588;BME280;40484;50.198;19.576;2023-01-16T11:24:28;99964.88;;;10.40;49.46
54588;BME280;40484;50.198;19.576;2023-01-16T11:29:32;99962.91;;;10.49;49.36
54588;BME280;40484;50.198;19.576;2023-01-16T11:34:31;99944.10;;;10.40;48.94
54588;BME280;40484;50.198;19.576;2023-01-16T11:39:59;99919.44;;;10.53;48.84
54588;BME280;40484;50.198;19.576;2023-01-16T11:45:15;99921.72;;;10.52;48.77
54588;BME280;40484;50.198;19.576;2023-01-16T11:50:54;99887.32;;;10.47;48.90
54588;BME280;40484;50.198;19.576;2023-01-16T12:01:29;99867.80;;;10.46;48.82
54588;BME280;40484;50.198;19.576;2023-01-16T12:17:15;99832.83;;;10.37;48.60
54588;BME280;40484;50.198;19.576;2023-01-16T12:33:21;99807.55;;;10.34;48.79
54588;BME280;40484;50.198;19.576;2023-01-16T12:38:32;99803.84;;;10.32;48.81
54588;BME280;40484;50.198;19.576;2023-01-16T12:49:26;99786.29;;;10.51;48.26
54588;BME280;40484;50.198;19.576;2023-01-16T12:54:57;99775.21;;;10.42;47.88
54588;BME280;40484;50.198;19.576;2023-01-16T13:00:10;99768.77;;;10.29;48.13
54588;BME280;40484;50.198;19.576;2023-01-16T13:05:16;99765.82;;;10.31;48.11
54588;BME280;40484;50.198;19.576;2023-01-16T13:10:27;99759.45;;;10.40;47.86
54588;BME280;40484;50.198;19.576;2023-01-16T13:16:31;99747.91;;;10.46;47.75
54588;BME280;40484;50.198;19.576;2023-01-16T13:21:36;99731.92;;;10.46;47.86
54588;BME280;40484;50.198;19.576;2023-01-16T13:26:38;99724.75;;;10.53;47.80
54588;BME280;40484;50.198;19.576;2023-01-16T13:31:43;99717.06;;;10.64;47.77
54588;BME280;40484;50.198;19.576;2023-01-16T13:42:10;99697.59;;;10.61;47.76
54588;BME280;40484;50.198;19.576;2023-01-16T13:47:14;99689.02;;;10.64;47.61
54588;BME280;40484;50.198;19.576;2023-01-16T13:52:24;99666.55;;;10.66;47.57
54588;BME280;40484;50.198;19.576;2023-01-16T13:57:26;99657.49;;;10.60;47.68
54588;BME280;40484;50.198;19.576;2023-01-16T14:02:45;99640.02;;;10.62;47.74
54588;BME280;40484;50.198;19.576;2023-01-16T14:08:44;99638.66;;;10.69;47.62
54588;BME280;40484;50.198;19.576;2023-01-16T14:14:20;99635.76;;;10.57;47.85
54588;BME280;40484;50.198;19.576;2023-01-16T14:19:57;99635.21;;;10.30;48.17
54588;BME280;40484;50.198;19.576;2023-01-16T14:25:29;99625.74;;;10.38;48.08
54588;BME280;40484;50.198;19.576;2023-01-16T14:30:32;99617.26;;;10.35;48.02
54588;BME280;40484;50.198;19.576;2023-01-16T14:40:38;99617.48;;;10.09;48.25
54588;BME280;40484;50.198;19.576;2023-01-16T14:46:29;99603.14;;;9.99;48.39
54588;BME280;40484;50.198;19.576;2023-01-16T14:52:10;99592.60;;;9.71;48.84
54588;BME280;40484;50.198;19.576;2023-01-16T14:58:26;99597.09;;;9.64;48.96
54588;BME280;40484;50.198;19.576;2023-01-16T15:03:26;99581.83;;;9.58;49.16
54588;BME280;40484;50.198;19.576;2023-01-16T15:08:32;99583.99;;;9.52;49.49
54588;BME280;40484;50.198;19.576;2023-01-16T15:13:33;99570.24;;;9.43;49.94
54588;BME280;40484;50.198;19.576;2023-01-16T15:18:54;99547.19;;;9.46;50.13
54588;BME280;40484;50.198;19.576;2023-01-16T15:24:35;99531.32;;;9.27;50.51
54588;BME280;40484;50.198;19.576;2023-01-16T15:35:18;99514.45;;;9.16;50.84
54588;BME280;40484;50.198;19.576;2023-01-16T15:40:26;99506.06;;;9.10;50.87
54588;BME280;40484;50.198;19.576;2023-01-16T15:45:27;99499.77;;;9.15;50.86
54588;BME280;40484;50.198;19.576;2023-01-16T15:51:09;99493.16;;;9.01;51.07
54588;BME280;40484;50.198;19.576;2023-01-16T15:56:24;99484.59;;;9.06;50.96
54588;BME280;40484;50.198;19.576;2023-01-16T16:01:33;99471.47;;;8.96;51.15
54588;BME280;40484;50.198;19.576;2023-01-16T16:06:35;99467.96;;;8.95;51.31
54588;BME280;40484;50.198;19.576;2023-01-16T16:11:41;99464.37;;;8.85;51.53
54588;BME280;40484;50.198;19.576;2023-01-16T16:23:05;99435.09;;;8.62;51.96
54588;BME280;40484;50.198;19.576;2023-01-16T16:28:05;99437.87;;;8.70;51.84
54588;BME280;40484;50.198;19.576;2023-01-16T16:33:17;99429.49;;;8.91;51.45
54588;BME280;40484;50.198;19.576;2023-01-16T16:38:24;99414.70;;;8.83;51.52
54588;BME280;40484;50.198;19.576;2023-01-16T16:48:49;99391.10;;;8.81;51.54
54588;BME280;40484;50.198;19.576;2023-01-16T16:53:53;99393.59;;;8.81;51.58
54588;BME280;40484;50.198;19.576;2023-01-16T16:59:24;99380.15;;;8.92;51.43
54588;BME280;40484;50.198;19.576;2023-01-16T17:04:25;99365.05;;;9.01;51.30
54588;BME280;40484;50.198;19.576;2023-01-16T17:09:27;99368.70;;;9.07;51.17
54588;BME280;40484;50.198;19.576;2023-01-16T17:14:30;99364.05;;;9.01;51.13
54588;BME280;40484;50.198;19.576;2023-01-16T17:19:32;99356.52;;;9.04;51.08
54588;BME280;40484;50.198;19.576;2023-01-16T17:24:33;99348.84;;;9.05;50.96
54588;BME280;40484;50.198;19.576;2023-01-16T17:29:36;99341.20;;;9.03;50.86
54588;BME280;40484;50.198;19.576;2023-01-16T17:34:44;99334.34;;;8.92;50.97
54588;BME280;40484;50.198;19.576;2023-01-16T17:39:45;99330.78;;;8.82;51.13
54588;BME280;40484;50.198;19.576;2023-01-16T17:44:47;99316.73;;;8.81;51.24
54588;BME280;40484;50.198;19.576;2023-01-16T17:50:27;99308.76;;;8.87;51.22
54588;BME280;40484;50.198;19.576;2023-01-16T17:55:28;99301.43;;;8.92;51.12
54588;BME280;40484;50.198;19.576;2023-01-16T18:01:21;99288.98;;;8.92;51.16
54588;BME280;40484;50.198;19.576;2023-01-16T18:06:20;99284.59;;;8.95;51.22
54588;BME280;40484;50.198;19.576;2023-01-16T18:11:22;99284.78;;;8.94;51.23
54588;BME280;40484;50.198;19.576;2023-01-16T18:16:50;99273.77;;;8.86;51.45
54588;BME280;40484;50.198;19.576;2023-01-16T18:22:24;99265.75;;;8.93;51.41
54588;BME280;40484;50.198;19.576;2023-01-16T18:27:27;99263.52;;;9.01;51.28
54588;BME280;40484;50.198;19.576;2023-01-16T18:32:29;99247.63;;;8.97;51.30
54588;BME280;40484;50.198;19.576;2023-01-16T18:37:41;99247.84;;;8.98;51.29
54588;BME280;40484;50.198;19.576;2023-01-16T18:42:44;99244.01;;;8.92;51.46
54588;BME280;40484;50.198;19.576;2023-01-16T18:48:48;99230.60;;;8.89;51.57
54588;BME280;40484;50.198;19.576;2023-01-16T18:54:28;99220.16;;;8.82;51.75
54588;BME280;40484;50.198;19.576;2023-01-16T19:00:15;99203.78;;;8.84;51.83
54588;BME280;40484;50.198;19.576;2023-01-16T19:06:20;99192.31;;;9.08;51.58
54588;BME280;40484;50.198;19.576;2023-01-16T19:11:21;99177.83;;;9.16;51.46
54588;BME280;40484;50.198;19.576;2023-01-16T19:16:24;99164.22;;;9.23;51.35
54588;BME280;40484;50.198;19.576;2023-01-16T19:21:45;99151.57;;;9.23;51.39
54588;BME280;40484;50.198;19.576;2023-01-16T19:26:46;99137.81;;;9.26;51.38
54588;BME280;40484;50.198;19.576;2023-01-16T19:31:49;99126.13;;;9.21;51.43
54588;BME280;40484;50.198;19.576;2023-01-16T19:36:52;99117.15;;;9.24;51.40
54588;BME280;40484;50.198;19.576;2023-01-16T19:41:53;99089.12;;;9.25;51.41
54588;BME280;40484;50.198;19.576;2023-01-16T19:47:33;99076.64;;;9.18;51.55
54588;BME280;40484;50.198;19.576;2023-01-16T19:52:35;99065.29;;;9.16;51.55
54588;BME280;40484;50.198;19.576;2023-01-16T19:57:36;99065.84;;;9.11;51.65
54588;BME280;40484;50.198;19.576;2023-01-16T20:03:03;99062.09;;;9.20;51.49
54588;BME280;40484;50.198;19.576;2023-01-16T20:08:05;99062.51;;;9.29;51.37
54588;BME280;40484;50.198;19.576;2023-01-16T20:13:08;99046.77;;;9.28;51.26
54588;BME280;40484;50.198;19.576;2023-01-16T20:18:09;99048.49;;;9.17;51.36
54588;BME280;40484;50.198;19.576;2023-01-16T20:23:11;99047.18;;;9.20;51.30
54588;BME280;40484;50.198;19.576;2023-01-16T20:28:13;99054.93;;;9.25;51.28
54588;BME280;40484;50.198;19.576;2023-01-16T20:33:15;99053.53;;;9.31;51.18
54588;BME280;40484;50.198;19.576;2023-01-16T20:38:18;99042.73;;;9.32;51.16
54588;BME280;40484;50.198;19.576;2023-01-16T20:43:19;99056.05;;;9.39;51.01
54588;BME280;40484;50.198;19.576;2023-01-16T20:48:59;99044.01;;;9.31;51.17
54588;BME280;40484;50.198;19.576;2023-01-16T20:54:01;99040.03;;;9.23;51.30
54588;BME280;40484;50.198;19.576;2023-01-16T20:59:09;99033.11;;;9.18;51.38
54588;BME280;40484;50.198;19.576;2023-01-16T21:04:12;99023.23;;;9.24;51.31
54588;BME280;40484;50.198;19.576;2023-01-16T21:09:42;99017.11;;;9.28;51.18
54588;BME280;40484;50.198;19.576;2023-01-16T21:14:44;99018.51;;;9.22;51.34
54588;BME280;40484;50.198;19.576;2023-01-16T21:19:50;99007.45;;;9.25;51.36
54588;BME280;40484;50.198;19.576;2023-01-16T21:25:30;98995.56;;;9.11;51.61
54588;BME280;40484;50.198;19.576;2023-01-16T21:30:32;98985.95;;;9.22;51.35
54588;BME280;40484;50.198;19.576;2023-01-16T21:35:34;98989.14;;;9.20;51.33
54588;BME280;40484;50.198;19.576;2023-01-16T21:40:35;98986.23;;;9.20;51.24
54588;BME280;40484;50.198;19.576;2023-01-16T21:45:37;98988.91;;;9.21;51.16
54588;BME280;40484;50.198;19.576;2023-01-16T21:51:41;98985.63;;;9.19;50.97
54588;BME280;40484;50.198;19.576;2023-01-16T21:56:43;98980.00;;;9.20;50.71
54588;BME280;40484;50.198;19.576;2023-01-16T22:01:44;98976.69;;;9.19;50.50
54588;BME280;40484;50.198;19.576;2023-01-16T22:06:46;98975.95;;;9.07;50.31
54588;BME280;40484;50.198;19.576;2023-01-16T22:11:48;98967.54;;;9.05;50.15
54588;BME280;40484;50.198;19.576;2023-01-16T22:17:28;98964.09;;;8.92;50.54
54588;BME280;40484;50.198;19.576;2023-01-16T22:22:49;98957.25;;;8.92;50.59
54588;BME280;40484;50.198;19.576;2023-01-16T22:27:55;98952.98;;;8.88;50.52
54588;BME280;40484;50.198;19.576;2023-01-16T22:32:57;98954.14;;;8.74;50.52
54588;BME280;40484;50.198;19.576;2023-01-16T22:37:59;98952.75;;;8.63;50.52
54588;BME280;40484;50.198;19.576;2023-01-16T22:43:00;98955.41;;;8.55;50.62
54588;BME280;40484;50.198;19.576;2023-01-16T22:49:05;98943.10;;;8.77;50.50
